sensor_id;sensor_type;location;lat;lon;timestamp;P1;durP1;ratioP1;P2;durP2;ratioP2
71106;SDS011;58763;47.982;11.516;2022-12-31T00:00:38;0.20;;;0.10;;
71106;SDS011;58763;47.982;11.516;2022-12-31T00:03:04;0.55;;;0.20;;
71106;SDS011;58763;47.982;11.516;2022-12-31T00:05:34;0.35;;;0.10;;
71106;SDS011;58763;47.982;11.516;2022-12-31T00:08:01;0.50;;;0.20;;
71106;SDS011;58763;47.982;11.516;2022-12-31T00:10:27;0.10;;;0.08;;
71106;SDS011;58763;47.982;11.516;2022-12-31T00:12:52;0.38;;;0.10;;
71106;SDS011;58763;47.982;11.516;2022-12-31T00:15:18;0.20;;;0.10;;
71106;SDS011;58763;47.982;11.516;2022-12-31T00:17:43;0.22;;;0.10;;
71106;SDS011;58763;47.982;11.516;2022-12-31T00:20:09;0.60;;;0.13;;
71106;SDS011;58763;47.982;11.516;2022-12-31T00:22:34;0.17;;;0.10;;
71106;SDS011;58763;47.982;11.516;2022-12-31T00:25:00;0.20;;;0.10;;
71106;SDS011;58763;47.982;11.516;2022-12-31T00:27:25;1.30;;;0.20;;
71106;SDS011;58763;47.982;11.516;2022-12-31T00:29:53;0.20;;;0.10;;
71106;SDS011;58763;47.982;11.516;2022-12-31T00:32:19;0.75;;;0.20;;
71106;SDS011;58763;47.982;11.516;2022-12-31T00:34:44;1.40;;;0.10;;
71106;SDS011;58763;47.982;11.516;2022-12-31T00:37:09;0.40;;;0.10;;
71106;SDS011;58763;47.982;11.516;2022-12-31T00:39:35;0.30;;;0.10;;
71106;SDS011;58763;47.982;11.516;2022-12-31T00:42:00;0.32;;;0.10;;
71106;SDS011;58763;47.982;11.516;2022-12-31T00:44:26;0.30;;;0.20;;
71106;SDS011;58763;47.982;11.516;2022-12-31T00:46:52;0.40;;;0.20;;
71106;SDS011;58763;47.982;11.516;2022-12-31T00:49:17;0.22;;;0.10;;
71106;SDS011;58763;47.982;11.516;2022-12-31T00:51:43;0.38;;;0.10;;
71106;SDS011;58763;47.982;11.516;2022-12-31T00:54:10;0.10;;;0.10;;
71106;SDS011;58763;47.982;11.516;2022-12-31T00:56:36;0.35;;;0.20;;
71106;SDS011;58763;47.982;11.516;2022-12-31T00:59:02;0.38;;;0.13;;
71106;SDS011;58763;47.982;11.516;2022-12-31T01:01:30;0.40;;;0.20;;
71106;SDS011;58763;47.982;11.516;2022-12-31T01:03:59;0.20;;;0.10;;
71106;SDS011;58763;47.982;11.516;2022-12-31T01:06:30;0.20;;;0.10;;
71106;SDS011;58763;47.982;11.516;2022-12-31T01:08:56;1.20;;;0.20;;
71106;SDS011;58763;47.982;11.516;2022-12-31T01:11:22;0.25;;;0.10;;
71106;SDS011;58763;47.982;11.516;2022-12-31T01:13:50;0.63;;;0.20;;
71106;SDS011;58763;47.982;11.516;2022-12-31T01:16:18;0.75;;;0.20;;
71106;SDS011;58763;47.982;11.516;2022-12-31T01:18:46;0.80;;;0.20;;
71106;SDS011;58763;47.982;11.516;2022-12-31T01:21:11;0.30;;;0.10;;
71106;SDS011;58763;47.982;11.516;2022-12-31T01:23:38;0.22;;;0.20;;
71106;SDS011;58763;47.982;11.516;2022-12-31T01:26:05;0.45;;;0.20;;
71106;SDS011;58763;47.982;11.516;2022-12-31T01:28:33;0.32;;;0.10;;
71106;SDS011;58763;47.982;11.516;2022-12-31T01:31:02;0.10;;;0.10;;
71106;SDS011;58763;47.982;11.516;2022-12-31T01:33:34;0.60;;;0.10;;
71106;SDS011;58763;47.982;11.516;2022-12-31T01:36:22;0.20;;;0.10;;
71106;SDS011;58763;47.982;11.516;2022-12-31T01:38:47;0.20;;;0.10;;
71106;SDS011;58763;47.982;11.516;2022-12-31T01:41:18;0.30;;;0.20;;
71106;SDS011;58763;47.982;11.516;2022-12-31T01:43:56;0.28;;;0.10;;
71106;SDS011;58763;47.982;11.516;2022-12-31T01:46:39;0.15;;;0.10;;
71106;SDS011;58763;47.982;11.516;2022-12-31T01:51:35;0.43;;;0.20;;
71106;SDS011;58763;47.982;11.516;2022-12-31T01:54:02;0.17;;;0.17;;
71106;SDS011;58763;47.982;11.516;2022-12-31T01:56:32;0.30;;;0.20;;
71106;SDS011;58763;47.982;11.516;2022-12-31T01:58:59;0.65;;;0.20;;
71106;SDS011;58763;47.982;11.516;2022-12-31T02:01:27;0.30;;;0.20;;
71106;SDS011;58763;47.982;11.516;2022-12-31T02:03:55;0.50;;;0.10;;
71106;SDS011;58763;47.982;11.516;2022-12-31T02:06:27;0.50;;;0.20;;
71106;SDS011;58763;47.982;11.516;2022-12-31T02:08:56;0.43;;;0.20;;
71106;SDS011;58763;47.982;11.516;2022-12-31T02:13:48;0.30;;;0.10;;
71106;SDS011;58763;47.982;11.516;2022-12-31T02:16:16;0.38;;;0.15;;
71106;SDS011;58763;47.982;11.516;2022-12-31T02:22:18;0.13;;;0.13;;
71106;SDS011;58763;47.982;11.516;2022-12-31T02:27:40;0.30;;;0.20;;
71106;SDS011;58763;47.982;11.516;2022-12-31T02:30:26;0.50;;;0.20;;
71106;SDS011;58763;47.982;11.516;2022-12-31T02:33:04;0.10;;;0.10;;
71106;SDS011;58763;47.982;11.516;2022-12-31T02:35:56;0.55;;;0.20;;
71106;SDS011;58763;47.982;11.516;2022-12-31T02:38:27;0.20;;;0.20;;
71106;SDS011;58763;47.982;11.516;2022-12-31T02:40:55;0.60;;;0.20;;
71106;SDS011;58763;47.982;11.516;2022-12-31T02:43:22;0.40;;;0.20;;
71106;SDS011;58763;47.982;11.516;2022-12-31T02:45:58;0.10;;;0.10;;
71106;SDS011;58763;47.982;11.516;2022-12-31T02:48:30;0.10;;;0.10;;
71106;SDS011;58763;47.982;11.516;2022-12-31T02:59:19;0.73;;;0.30;;
71106;SDS011;58763;47.982;11.516;2022-12-31T03:02:11;0.65;;;0.17;;
71106;SDS011;58763;47.982;11.516;2022-12-31T03:04:44;0.70;;;0.20;;
71106;SDS011;58763;47.982;11.516;2022-12-31T03:07:15;0.50;;;0.20;;
71106;SDS011;58763;47.982;11.516;2022-12-31T03:09:43;0.30;;;0.20;;
71106;SDS011;58763;47.982;11.516;2022-12-31T03:12:09;0.30;;;0.13;;
71106;SDS011;58763;47.982;11.516;2022-12-31T03:14:55;0.55;;;0.10;;
71106;SDS011;58763;47.982;11.516;2022-12-31T03:17:21;0.20;;;0.20;;
71106;SDS011;58763;47.982;11.516;2022-12-31T03:19:47;0.43;;;0.20;;
71106;SDS011;58763;47.982;11.516;2022-12-31T03:22:33;0.20;;;0.17;;
71106;SDS011;58763;47.982;11.516;2022-12-31T03:25:07;0.30;;;0.20;;
71106;SDS011;58763;47.982;11.516;2022-12-31T03:28:10;0.90;;;0.20;;
71106;SDS011;58763;47.982;11.516;2022-12-31T03:30:38;0.45;;;0.20;;
71106;SDS011;58763;47.982;11.516;2022-12-31T03:33:05;0.25;;;0.20;;
71106;SDS011;58763;47.982;11.516;2022-12-31T03:35:32;0.90;;;0.30;;
71106;SDS011;58763;47.982;11.516;2022-12-31T03:37:59;0.45;;;0.22;;
71106;SDS011;58763;47.982;11.516;2022-12-31T03:40:25;0.30;;;0.20;;
71106;SDS011;58763;47.982;11.516;2022-12-31T03:42:53;0.22;;;0.20;;
71106;SDS011;58763;47.982;11.516;2022-12-31T03:45:18;0.20;;;0.20;;
71106;SDS011;58763;47.982;11.516;2022-12-31T03:47:44;0.15;;;0.10;;
71106;SDS011;58763;47.982;11.516;2022-12-31T03:50:10;1.17;;;0.20;;
71106;SDS011;58763;47.982;11.516;2022-12-31T03:52:37;1.95;;;0.20;;
71106;SDS011;58763;47.982;11.516;2022-12-31T03:55:03;0.60;;;0.20;;
71106;SDS011;58763;47.982;11.516;2022-12-31T03:57:29;0.40;;;0.20;;
71106;SDS011;58763;47.982;11.516;2022-12-31T03:59:57;0.50;;;0.20;;
71106;SDS011;58763;47.982;11.516;2022-12-31T04:02:23;0.32;;;0.10;;
71106;SDS011;58763;47.982;11.516;2022-12-31T04:04:48;0.68;;;0.20;;
71106;SDS011;58763;47.982;11.516;2022-12-31T04:07:14;0.40;;;0.17;;
71106;SDS011;58763;47.982;11.516;2022-12-31T04:09:39;0.50;;;0.20;;
71106;SDS011;58763;47.982;11.516;2022-12-31T04:12:05;1.27;;;0.15;;
71106;SDS011;58763;47.982;11.516;2022-12-31T04:14:30;0.22;;;0.20;;
71106;SDS011;58763;47.982;11.516;2022-12-31T04:16:56;0.20;;;0.20;;
71106;SDS011;58763;47.982;11.516;2022-12-31T04:19:21;0.10;;;0.10;;
71106;SDS011;58763;47.982;11.516;2022-12-31T04:21:47;1.48;;;0.30;;
71106;SDS011;58763;47.982;11.516;2022-12-31T04:24:12;0.60;;;0.20;;
71106;SDS011;58763;47.982;11.516;2022-12-31T04:26:38;0.13;;;0.13;;
71106;SDS011;58763;47.982;11.516;2022-12-31T04:29:03;0.30;;;0.20;;
71106;SDS011;58763;47.982;11.516;2022-12-31T04:31:29;0.30;;;0.20;;
71106;SDS011;58763;47.982;11.516;2022-12-31T04:33:54;1.42;;;0.20;;
71106;SDS011;58763;47.982;11.516;2022-12-31T04:36:20;0.60;;;0.15;;
71106;SDS011;58763;47.982;11.516;2022-12-31T04:38:45;0.20;;;0.17;;
71106;SDS011;58763;47.982;11.516;2022-12-31T04:41:10;0.50;;;0.20;;
71106;SDS011;58763;47.982;11.516;2022-12-31T04:43:43;0.50;;;0.20;;
71106;SDS011;58763;47.982;11.516;2022-12-31T04:46:10;1.00;;;0.20;;
71106;SDS011;58763;47.982;11.516;2022-12-31T04:48:36;1.00;;;0.25;;
71106;SDS011;58763;47.982;11.516;2022-12-31T04:51:02;8.48;;;3.25;;
71106;SDS011;58763;47.982;11.516;2022-12-31T04:53:27;1.02;;;0.35;;
71106;SDS011;58763;47.982;11.516;2022-12-31T04:55:53;0.55;;;0.20;;
71106;SDS011;58763;47.982;11.516;2022-12-31T04:58:19;0.30;;;0.20;;
71106;SDS011;58763;47.982;11.516;2022-12-31T05:00:44;0.10;;;0.10;;
71106;SDS011;58763;47.982;11.516;2022-12-31T05:03:13;0.43;;;0.20;;
71106;SDS011;58763;47.982;11.516;2022-12-31T05:05:40;0.25;;;0.20;;
71106;SDS011;58763;47.982;11.516;2022-12-31T05:08:09;1.20;;;0.25;;
71106;SDS011;58763;47.982;11.516;2022-12-31T05:10:35;0.93;;;0.20;;
71106;SDS011;58763;47.982;11.516;2022-12-31T05:13:04;0.30;;;0.17;;
71106;SDS011;58763;47.982;11.516;2022-12-31T05:15:30;0.43;;;0.20;;
71106;SDS011;58763;47.982;11.516;2022-12-31T05:17:55;0.38;;;0.20;;
71106;SDS011;58763;47.982;11.516;2022-12-31T05:20:21;0.70;;;0.20;;
71106;SDS011;58763;47.982;11.516;2022-12-31T05:22:47;0.75;;;0.30;;
71106;SDS011;58763;47.982;11.516;2022-12-31T05:25:12;0.32;;;0.20;;
71106;SDS011;58763;47.982;11.516;2022-12-31T05:27:38;0.45;;;0.20;;
71106;SDS011;58763;47.982;11.516;2022-12-31T05:30:04;0.60;;;0.20;;
71106;SDS011;58763;47.982;11.516;2022-12-31T05:32:30;0.63;;;0.20;;
71106;SDS011;58763;47.982;11.516;2022-12-31T05:34:56;0.80;;;0.30;;
71106;SDS011;58763;47.982;11.516;2022-12-31T05:37:23;0.28;;;0.20;;
71106;SDS011;58763;47.982;11.516;2022-12-31T05:39:50;0.50;;;0.20;;
71106;SDS011;58763;47.982;11.516;2022-12-31T05:42:15;0.30;;;0.20;;
71106;SDS011;58763;47.982;11.516;2022-12-31T05:44:41;0.20;;;0.20;;
71106;SDS011;58763;47.982;11.516;2022-12-31T05:47:06;0.28;;;0.10;;
71106;SDS011;58763;47.982;11.516;2022-12-31T05:49:31;0.75;;;0.20;;
71106;SDS011;58763;47.982;11.516;2022-12-31T05:51:57;0.57;;;0.20;;
71106;SDS011;58763;47.982;11.516;2022-12-31T05:54:22;0.40;;;0.20;;
71106;SDS011;58763;47.982;11.516;2022-12-31T05:56:47;0.20;;;0.20;;
71106;SDS011;58763;47.982;11.516;2022-12-31T05:59:13;0.73;;;0.20;;
71106;SDS011;58763;47.982;11.516;2022-12-31T06:01:38;0.35;;;0.20;;
71106;SDS011;58763;47.982;11.516;2022-12-31T06:04:04;1.23;;;0.40;;
71106;SDS011;58763;47.982;11.516;2022-12-31T06:06:30;1.27;;;0.30;;
71106;SDS011;58763;47.982;11.516;2022-12-31T06:08:58;0.98;;;0.38;;
71106;SDS011;58763;47.982;11.516;2022-12-31T06:11:24;0.77;;;0.30;;
71106;SDS011;58763;47.982;11.516;2022-12-31T06:13:49;1.92;;;0.73;;
71106;SDS011;58763;47.982;11.516;2022-12-31T06:16:15;1.23;;;0.47;;
71106;SDS011;58763;47.982;11.516;2022-12-31T06:18:40;0.90;;;0.30;;
71106;SDS011;58763;47.982;11.516;2022-12-31T06:21:05;2.45;;;0.30;;
71106;SDS011;58763;47.982;11.516;2022-12-31T06:23:31;0.60;;;0.30;;
71106;SDS011;58763;47.982;11.516;2022-12-31T06:26:00;1.52;;;0.50;;
71106;SDS011;58763;47.982;11.516;2022-12-31T06:28:26;0.50;;;0.30;;
71106;SDS011;58763;47.982;11.516;2022-12-31T06:30:57;1.83;;;0.40;;
71106;SDS011;58763;47.982;11.516;2022-12-31T06:33:27;1.40;;;0.40;;
71106;SDS011;58763;47.982;11.516;2022-12-31T06:35:56;1.05;;;0.30;;
71106;SDS011;58763;47.982;11.516;2022-12-31T06:38:23;0.93;;;0.40;;
71106;SDS011;58763;47.982;11.516;2022-12-31T06:40:49;2.55;;;0.50;;
71106;SDS011;58763;47.982;11.516;2022-12-31T06:43:15;0.85;;;0.40;;
71106;SDS011;58763;47.982;11.516;2022-12-31T06:45:41;0.85;;;0.40;;
71106;SDS011;58763;47.982;11.516;2022-12-31T06:48:06;1.38;;;0.38;;
71106;SDS011;58763;47.982;11.516;2022-12-31T06:50:32;0.95;;;0.35;;
71106;SDS011;58763;47.982;11.516;2022-12-31T06:52:57;0.75;;;0.40;;
71106;SDS011;58763;47.982;11.516;2022-12-31T06:55:23;0.95;;;0.30;;
71106;SDS011;58763;47.982;11.516;2022-12-31T06:57:49;1.25;;;0.40;;
71106;SDS011;58763;47.982;11.516;2022-12-31T07:00:14;1.50;;;0.50;;
71106;SDS011;58763;47.982;11.516;2022-12-31T07:05:29;1.45;;;0.35;;
71106;SDS011;58763;47.982;11.516;2022-12-31T07:19:20;2.33;;;0.43;;
71106;SDS011;58763;47.982;11.516;2022-12-31T07:22:14;1.00;;;0.30;;
71106;SDS011;58763;47.982;11.516;2022-12-31T07:24:41;1.42;;;0.50;;
71106;SDS011;58763;47.982;11.516;2022-12-31T07:27:17;0.60;;;0.40;;
71106;SDS011;58763;47.982;11.516;2022-12-31T07:29:55;1.10;;;0.47;;
71106;SDS011;58763;47.982;11.516;2022-12-31T07:35:02;2.00;;;0.80;;
71106;SDS011;58763;47.982;11.516;2022-12-31T07:40:53;1.50;;;0.57;;
71106;SDS011;58763;47.982;11.516;2022-12-31T07:43:35;3.45;;;0.50;;
71106;SDS011;58763;47.982;11.516;2022-12-31T07:46:25;1.38;;;0.50;;
71106;SDS011;58763;47.982;11.516;2022-12-31T07:48:57;1.15;;;0.50;;
71106;SDS011;58763;47.982;11.516;2022-12-31T07:51:23;1.05;;;0.40;;
71106;SDS011;58763;47.982;11.516;2022-12-31T07:53:49;1.58;;;0.57;;
71106;SDS011;58763;47.982;11.516;2022-12-31T07:56:21;1.45;;;0.60;;
71106;SDS011;58763;47.982;11.516;2022-12-31T08:01:50;1.33;;;0.57;;
71106;SDS011;58763;47.982;11.516;2022-12-31T08:04:48;1.70;;;0.45;;
71106;SDS011;58763;47.982;11.516;2022-12-31T08:13:00;1.23;;;0.50;;
71106;SDS011;58763;47.982;11.516;2022-12-31T08:15:28;1.15;;;0.43;;
71106;SDS011;58763;47.982;11.516;2022-12-31T08:17:53;1.20;;;0.50;;
71106;SDS011;58763;47.982;11.516;2022-12-31T08:20:19;1.10;;;0.43;;
71106;SDS011;58763;47.982;11.516;2022-12-31T08:31:19;1.33;;;0.60;;
71106;SDS011;58763;47.982;11.516;2022-12-31T08:33:54;0.55;;;0.30;;
71106;SDS011;58763;47.982;11.516;2022-12-31T08:36:30;1.25;;;0.50;;
71106;SDS011;58763;47.982;11.516;2022-12-31T08:41:49;1.13;;;0.50;;
71106;SDS011;58763;47.982;11.516;2022-12-31T08:49:48;1.98;;;0.52;;
71106;SDS011;58763;47.982;11.516;2022-12-31T08:52:14;1.60;;;0.57;;
71106;SDS011;58763;47.982;11.516;2022-12-31T08:54:45;1.48;;;0.60;;
71106;SDS011;58763;47.982;11.516;2022-12-31T09:11:58;1.10;;;0.45;;
71106;SDS011;58763;47.982;11.516;2022-12-31T09:14:28;1.20;;;0.40;;
71106;SDS011;58763;47.982;11.516;2022-12-31T09:19:34;0.93;;;0.40;;
71106;SDS011;58763;47.982;11.516;2022-12-31T09:21:59;1.50;;;0.40;;
71106;SDS011;58763;47.982;11.516;2022-12-31T09:24:26;1.17;;;0.40;;
71106;SDS011;58763;47.982;11.516;2022-12-31T09:38:15;3.00;;;0.80;;
71106;SDS011;58763;47.982;11.516;2022-12-31T09:52:26;1.83;;;0.68;;
71106;SDS011;58763;47.982;11.516;2022-12-31T10:00:56;1.75;;;0.70;;
71106;SDS011;58763;47.982;11.516;2022-12-31T10:06:10;1.35;;;0.40;;
71106;SDS011;58763;47.982;11.516;2022-12-31T10:09:05;1.80;;;0.60;;
71106;SDS011;58763;47.982;11.516;2022-12-31T10:28:30;1.65;;;0.47;;
71106;SDS011;58763;47.982;11.516;2022-12-31T10:37:15;0.85;;;0.30;;
71106;SDS011;58763;47.982;11.516;2022-12-31T11:09:51;0.90;;;0.40;;
71106;SDS011;58763;47.982;11.516;2022-12-31T11:15:14;0.90;;;0.40;;
71106;SDS011;58763;47.982;11.516;2022-12-31T11:29:02;1.93;;;0.50;;
71106;SDS011;58763;47.982;11.516;2022-12-31T11:40:20;1.38;;;0.50;;
71106;SDS011;58763;47.982;11.516;2022-12-31T11:53:50;0.90;;;0.40;;
71106;SDS011;58763;47.982;11.516;2022-12-31T11:56:22;1.70;;;0.50;;
71106;SDS011;58763;47.982;11.516;2022-12-31T11:58:51;2.22;;;0.70;;
71106;SDS011;58763;47.982;11.516;2022-12-31T12:04:00;1.08;;;0.22;;
71106;SDS011;58763;47.982;11.516;2022-12-31T12:06:28;1.33;;;0.50;;
71106;SDS011;58763;47.982;11.516;2022-12-31T12:08:58;3.17;;;0.80;;
71106;SDS011;58763;47.982;11.516;2022-12-31T12:11:28;1.75;;;0.50;;
71106;SDS011;58763;47.982;11.516;2022-12-31T12:13:56;1.80;;;0.85;;
71106;SDS011;58763;47.982;11.516;2022-12-31T12:16:23;2.30;;;0.68;;
71106;SDS011;58763;47.982;11.516;2022-12-31T12:19:04;2.38;;;0.70;;
71106;SDS011;58763;47.982;11.516;2022-12-31T12:24:02;1.15;;;0.40;;
71106;SDS011;58763;47.982;11.516;2022-12-31T12:29:10;3.00;;;0.70;;
71106;SDS011;58763;47.982;11.516;2022-12-31T12:31:37;1.35;;;0.38;;
71106;SDS011;58763;47.982;11.516;2022-12-31T12:34:03;1.60;;;0.50;;
71106;SDS011;58763;47.982;11.516;2022-12-31T12:36:29;0.63;;;0.25;;
71106;SDS011;58763;47.982;11.516;2022-12-31T12:39:03;1.95;;;0.50;;
71106;SDS011;58763;47.982;11.516;2022-12-31T12:41:30;1.33;;;0.50;;
71106;SDS011;58763;47.982;11.516;2022-12-31T12:44:06;1.20;;;0.30;;
71106;SDS011;58763;47.982;11.516;2022-12-31T12:46:42;1.48;;;0.45;;
71106;SDS011;58763;47.982;11.516;2022-12-31T12:49:23;1.48;;;0.50;;
71106;SDS011;58763;47.982;11.516;2022-12-31T12:57:28;3.00;;;0.63;;
71106;SDS011;58763;47.982;11.516;2022-12-31T13:00:07;3.20;;;0.68;;
71106;SDS011;58763;47.982;11.516;2022-12-31T13:02:41;2.20;;;0.50;;
71106;SDS011;58763;47.982;11.516;2022-12-31T13:05:18;1.85;;;0.45;;
71106;SDS011;58763;47.982;11.516;2022-12-31T13:11:06;1.23;;;0.38;;
71106;SDS011;58763;47.982;11.516;2022-12-31T13:19:16;1.10;;;0.40;;
71106;SDS011;58763;47.982;11.516;2022-12-31T13:22:04;1.33;;;0.40;;
71106;SDS011;58763;47.982;11.516;2022-12-31T13:24:59;1.23;;;0.32;;
71106;SDS011;58763;47.982;11.516;2022-12-31T13:27:47;1.55;;;0.30;;
71106;SDS011;58763;47.982;11.516;2022-12-31T13:32:47;0.35;;;0.20;;
71106;SDS011;58763;47.982;11.516;2022-12-31T13:35:28;0.93;;;0.30;;
71106;SDS011;58763;47.982;11.516;2022-12-31T13:38:01;1.25;;;0.50;;
71106;SDS011;58763;47.982;11.516;2022-12-31T13:40:52;1.23;;;0.32;;
71106;SDS011;58763;47.982;11.516;2022-12-31T13:46:09;4.07;;;0.60;;
71106;SDS011;58763;47.982;11.516;2022-12-31T13:48:54;1.80;;;0.60;;
71106;SDS011;58763;47.982;11.516;2022-12-31T13:51:28;1.15;;;0.40;;
71106;SDS011;58763;47.982;11.516;2022-12-31T13:54:13;0.73;;;0.30;;
71106;SDS011;58763;47.982;11.516;2022-12-31T13:56:56;1.17;;;0.45;;
71106;SDS011;58763;47.982;11.516;2022-12-31T13:59:30;1.02;;;0.40;;
71106;SDS011;58763;47.982;11.516;2022-12-31T14:07:43;1.75;;;0.50;;
71106;SDS011;58763;47.982;11.516;2022-12-31T14:10:13;3.70;;;1.27;;
71106;SDS011;58763;47.982;11.516;2022-12-31T14:12:45;4.97;;;2.33;;
71106;SDS011;58763;47.982;11.516;2022-12-31T14:15:41;4.88;;;2.13;;
71106;SDS011;58763;47.982;11.516;2022-12-31T14:18:27;4.60;;;2.15;;
71106;SDS011;58763;47.982;11.516;2022-12-31T14:21:06;4.75;;;2.30;;
71106;SDS011;58763;47.982;11.516;2022-12-31T14:26:21;1.90;;;0.80;;
71106;SDS011;58763;47.982;11.516;2022-12-31T14:46:09;4.13;;;1.80;;
71106;SDS011;58763;47.982;11.516;2022-12-31T14:49:00;3.72;;;1.40;;
71106;SDS011;58763;47.982;11.516;2022-12-31T14:51:44;3.45;;;1.52;;
71106;SDS011;58763;47.982;11.516;2022-12-31T14:54:26;3.90;;;1.30;;
71106;SDS011;58763;47.982;11.516;2022-12-31T14:57:36;3.45;;;1.40;;
71106;SDS011;58763;47.982;11.516;2022-12-31T15:00:21;3.60;;;1.67;;
71106;SDS011;58763;47.982;11.516;2022-12-31T15:02:50;3.33;;;1.40;;
71106;SDS011;58763;47.982;11.516;2022-12-31T15:05:22;2.90;;;1.23;;
71106;SDS011;58763;47.982;11.516;2022-12-31T15:10:46;2.47;;;0.98;;
71106;SDS011;58763;47.982;11.516;2022-12-31T15:13:26;2.03;;;0.75;;
71106;SDS011;58763;47.982;11.516;2022-12-31T15:16:06;2.78;;;0.95;;
71106;SDS011;58763;47.982;11.516;2022-12-31T15:21:33;3.00;;;0.80;;
71106;SDS011;58763;47.982;11.516;2022-12-31T15:24:24;2.67;;;0.88;;
71106;SDS011;58763;47.982;11.516;2022-12-31T15:26:53;2.17;;;0.80;;
71106;SDS011;58763;47.982;11.516;2022-12-31T15:29:28;3.13;;;1.10;;
71106;SDS011;58763;47.982;11.516;2022-12-31T15:31:58;2.28;;;0.95;;
71106;SDS011;58763;47.982;11.516;2022-12-31T15:37:00;2.60;;;1.00;;
71106;SDS011;58763;47.982;11.516;2022-12-31T15:41:57;4.60;;;0.80;;
71106;SDS011;58763;47.982;11.516;2022-12-31T15:44:29;2.10;;;0.70;;
71106;SDS011;58763;47.982;11.516;2022-12-31T15:47:03;2.40;;;0.75;;
71106;SDS011;58763;47.982;11.516;2022-12-31T15:49:40;2.33;;;0.90;;
71106;SDS011;58763;47.982;11.516;2022-12-31T15:52:17;1.67;;;0.70;;
71106;SDS011;58763;47.982;11.516;2022-12-31T15:54:48;2.70;;;0.70;;
71106;SDS011;58763;47.982;11.516;2022-12-31T15:57:22;2.92;;;0.90;;
71106;SDS011;58763;47.982;11.516;2022-12-31T16:00:00;2.63;;;1.00;;
71106;SDS011;58763;47.982;11.516;2022-12-31T16:02:29;5.72;;;3.40;;
71106;SDS011;58763;47.982;11.516;2022-12-31T16:04:55;6.53;;;3.47;;
71106;SDS011;58763;47.982;11.516;2022-12-31T16:07:21;5.47;;;2.38;;
71106;SDS011;58763;47.982;11.516;2022-12-31T16:09:48;4.63;;;2.28;;
71106;SDS011;58763;47.982;11.516;2022-12-31T16:12:26;4.60;;;2.42;;
71106;SDS011;58763;47.982;11.516;2022-12-31T16:14:55;8.80;;;5.57;;
71106;SDS011;58763;47.982;11.516;2022-12-31T16:17:32;11.52;;;8.27;;
71106;SDS011;58763;47.982;11.516;2022-12-31T16:20:00;8.27;;;5.95;;
71106;SDS011;58763;47.982;11.516;2022-12-31T16:22:48;39.35;;;25.30;;
71106;SDS011;58763;47.982;11.516;2022-12-31T16:25:20;32.40;;;21.77;;
71106;SDS011;58763;47.982;11.516;2022-12-31T16:27:47;29.30;;;17.25;;
71106;SDS011;58763;47.982;11.516;2022-12-31T16:30:22;71.32;;;49.92;;
71106;SDS011;58763;47.982;11.516;2022-12-31T16:32:51;36.42;;;23.95;;
71106;SDS011;58763;47.982;11.516;2022-12-31T16:35:20;30.40;;;18.70;;
71106;SDS011;58763;47.982;11.516;2022-12-31T16:37:48;24.70;;;14.57;;
71106;SDS011;58763;47.982;11.516;2022-12-31T16:40:27;18.88;;;11.18;;
71106;SDS011;58763;47.982;11.516;2022-12-31T16:42:53;18.70;;;10.98;;
71106;SDS011;58763;47.982;11.516;2022-12-31T16:45:29;14.05;;;8.65;;
71106;SDS011;58763;47.982;11.516;2022-12-31T16:47:56;64.65;;;41.78;;
71106;SDS011;58763;47.982;11.516;2022-12-31T16:50:25;100.28;;;64.95;;
71106;SDS011;58763;47.982;11.516;2022-12-31T16:52:54;22.15;;;14.50;;
71106;SDS011;58763;47.982;11.516;2022-12-31T16:55:24;23.17;;;14.05;;
71106;SDS011;58763;47.982;11.516;2022-12-31T16:58:00;15.02;;;8.70;;
71106;SDS011;58763;47.982;11.516;2022-12-31T17:00:27;16.85;;;9.38;;
71106;SDS011;58763;47.982;11.516;2022-12-31T17:08:37;13.13;;;9.15;;
71106;SDS011;58763;47.982;11.516;2022-12-31T17:11:15;8.75;;;5.53;;
71106;SDS011;58763;47.982;11.516;2022-12-31T17:13:42;12.43;;;8.77;;
71106;SDS011;58763;47.982;11.516;2022-12-31T17:16:16;12.80;;;8.25;;
71106;SDS011;58763;47.982;11.516;2022-12-31T17:18:42;19.85;;;13.73;;
71106;SDS011;58763;47.982;11.516;2022-12-31T17:21:08;20.52;;;13.77;;
71106;SDS011;58763;47.982;11.516;2022-12-31T17:23:35;20.77;;;17.02;;
71106;SDS011;58763;47.982;11.516;2022-12-31T17:26:11;11.05;;;6.50;;
71106;SDS011;58763;47.982;11.516;2022-12-31T17:28:40;7.57;;;5.45;;
71106;SDS011;58763;47.982;11.516;2022-12-31T17:31:26;9.60;;;4.15;;
71106;SDS011;58763;47.982;11.516;2022-12-31T17:33:52;11.07;;;6.75;;
71106;SDS011;58763;47.982;11.516;2022-12-31T17:36:27;9.52;;;5.07;;
71106;SDS011;58763;47.982;11.516;2022-12-31T17:38:53;10.18;;;6.38;;
71106;SDS011;58763;47.982;11.516;2022-12-31T17:41:23;27.38;;;16.15;;
71106;SDS011;58763;47.982;11.516;2022-12-31T17:43:52;10.13;;;6.40;;
71106;SDS011;58763;47.982;11.516;2022-12-31T17:46:19;22.70;;;14.23;;
71106;SDS011;58763;47.982;11.516;2022-12-31T17:48:47;19.98;;;13.57;;
71106;SDS011;58763;47.982;11.516;2022-12-31T17:51:15;10.35;;;6.13;;
71106;SDS011;58763;47.982;11.516;2022-12-31T17:53:41;15.43;;;10.68;;
71106;SDS011;58763;47.982;11.516;2022-12-31T17:56:06;13.15;;;8.30;;
71106;SDS011;58763;47.982;11.516;2022-12-31T18:01:10;9.40;;;5.63;;
71106;SDS011;58763;47.982;11.516;2022-12-31T18:03:39;7.35;;;4.25;;
71106;SDS011;58763;47.982;11.516;2022-12-31T18:06:05;10.27;;;4.70;;
71106;SDS011;58763;47.982;11.516;2022-12-31T18:08:32;7.80;;;3.50;;
71106;SDS011;58763;47.982;11.516;2022-12-31T18:10:58;8.52;;;5.03;;
71106;SDS011;58763;47.982;11.516;2022-12-31T18:13:24;9.68;;;5.43;;
71106;SDS011;58763;47.982;11.516;2022-12-31T18:15:51;8.00;;;4.63;;
71106;SDS011;58763;47.982;11.516;2022-12-31T18:18:21;7.30;;;4.45;;
71106;SDS011;58763;47.982;11.516;2022-12-31T18:20:49;6.05;;;3.60;;
71106;SDS011;58763;47.982;11.516;2022-12-31T18:23:18;7.07;;;3.90;;
71106;SDS011;58763;47.982;11.516;2022-12-31T18:25:47;6.97;;;4.30;;
71106;SDS011;58763;47.982;11.516;2022-12-31T18:28:12;7.43;;;5.20;;
71106;SDS011;58763;47.982;11.516;2022-12-31T18:30:38;7.75;;;4.78;;
71106;SDS011;58763;47.982;11.516;2022-12-31T18:33:04;6.80;;;4.18;;
71106;SDS011;58763;47.982;11.516;2022-12-31T18:35:30;7.82;;;4.00;;
71106;SDS011;58763;47.982;11.516;2022-12-31T18:37:57;7.63;;;4.35;;
71106;SDS011;58763;47.982;11.516;2022-12-31T18:40:23;9.48;;;5.95;;
71106;SDS011;58763;47.982;11.516;2022-12-31T18:42:49;7.85;;;4.97;;
71106;SDS011;58763;47.982;11.516;2022-12-31T18:45:17;7.35;;;3.72;;
71106;SDS011;58763;47.982;11.516;2022-12-31T18:47:44;7.93;;;4.57;;
71106;SDS011;58763;47.982;11.516;2022-12-31T18:50:15;8.77;;;5.20;;
71106;SDS011;58763;47.982;11.516;2022-12-31T18:52:41;12.68;;;6.63;;
71106;SDS011;58763;47.982;11.516;2022-12-31T18:55:27;9.50;;;6.03;;
71106;SDS011;58763;47.982;11.516;2022-12-31T18:58:01;7.43;;;4.38;;
71106;SDS011;58763;47.982;11.516;2022-12-31T19:00:27;5.97;;;3.10;;
71106;SDS011;58763;47.982;11.516;2022-12-31T19:02:52;5.63;;;2.92;;
71106;SDS011;58763;47.982;11.516;2022-12-31T19:05:28;5.45;;;3.15;;
71106;SDS011;58763;47.982;11.516;2022-12-31T19:07:56;3.83;;;1.80;;
71106;SDS011;58763;47.982;11.516;2022-12-31T19:10:22;5.28;;;2.28;;
71106;SDS011;58763;47.982;11.516;2022-12-31T19:12:49;9.43;;;4.25;;
71106;SDS011;58763;47.982;11.516;2022-12-31T19:15:22;5.07;;;2.53;;
71106;SDS011;58763;47.982;11.516;2022-12-31T19:17:50;4.35;;;1.50;;
71106;SDS011;58763;47.982;11.516;2022-12-31T19:20:16;4.43;;;1.60;;
71106;SDS011;58763;47.982;11.516;2022-12-31T19:22:42;3.72;;;1.52;;
71106;SDS011;58763;47.982;11.516;2022-12-31T19:25:21;5.47;;;1.73;;